McClure, VA (24269)

2:46 AM EDT on July 26, 2014 (GMT -0400)
Ramey Flats (KVACLINT2) Elev 1795 ft | 37.21 °N, 82.44 °W | Change Station

Current weather conditions updated 11 minutes ago

Mostly Cloudy
Mostly Cloudy
61.2 °F
Feels Like 61.2 °F
N
0.0
Wind Variable Wind from SSE
Gusts 0.0 mph

Today is forecast to be Much Warmer than yesterday.

Today
High -- | Low -- °F
--% Chance of Precip.
Yesterday
High -- | Low -- °F
Precip. -- in
6:29 AM 8:41 PM
Waning Crescent, 0% visible
Pressure 30.10 in
Visibility 10.0 miles
Clouds Mostly Cloudy 12000 ft
Dew Point 61 °F
Humidity 100%
Rainfall 0.00 in
Snow Depth Not available.
UV 0 out of 12
Pollen 4.40 out of 12
Air Quality Not available.
Flu Activity Not available.
METAR KLNP 260635Z AUTO 20005KT 10SM BKN120 20/13 A3010 RMK AO2

More Conditions Fewer Conditions

Pressure 30.10 in
Visibility 10.0 miles
Clouds Mostly Cloudy 12000 ft
Dew Point 61 °F
Humidity 100%
Rainfall 0.00 in
Snow Depth Not available.
UV 0 out of 12
Pollen 4.40 out of 12
Air Quality Not available.
Flu Activity Not available.
METAR KLNP 260635Z AUTO 20005KT 10SM BKN120 20/13 A3010 RMK AO2

More Conditions Fewer Conditions

10-Day Weather Forecast

Almanac

Astronomy

Jul. 26, 2014 Rise Set
Actual Time 6:29 AM EDT 8:41 PM EDT
Civil Twilight 6:00 AM EDT 9:11 PM EDT
Nautical Twilight 5:24 AM EDT 9:46 PM EDT
Astronomical Twilight 4:45 AM EDT 10:25 PM EDT
Moon 6:19 AM EDT 8:18 PM EDT
Length of Visible Light 15h 10m
Length of Day
14h 12m
Tomorrow will be 1m 37s shorter.
Waning Crescent, 0% of the Moon is Illuminated
Today
Waning Crescent
Jul 26
New
Aug 3
First Quarter
Aug 10
Full
Aug 17
Last Quarter

Today's Extremes

State Highs State Lows

Community

WunderPhotos

Upload Photos

1,737,524 photos uploaded!

Nearby

Snow Depth

Station Depth Elevation
No new snow has been reported.

Earthquake Activity

City Distance Mag. Time & Date
No recent earthquake activity has been reported nearby.
Minimum magnitude displayed is 2.5.

Coastal Water Temperatures

Place Temperature
No Stations Reporting

Nearby Weather Stations

Station Location Temp. Dew Point Humidity Wind Precip. Elev Updated Type
Ramey Flats, Clintwood, VA 61.2 °F 61 °F 100% SSE  at  0.0 mph 0.00 in / hr 1795 ft 2:34 AM EDT Normal
RAWS PRAWS 12 KY, Jenkins, KY 64 °F 64 °F 100% North  at  0 mph 0.00 in / hr 1974 ft 1:47 AM EDT MADIS
My Side Of The Mountain, Lebanon, VA 61.9 °F 60 °F 95% ESE  at  0.0 mph 0.00 in / hr 2480 ft 2:45 AM EDT Rapid Fire
Sookeys Creek, Kentucky, KY 62.8 °F 62 °F 97% North  at  0.0 mph 0.00 in / hr 850 ft 2:41 AM EDT Normal

Show More Stations Show Fewer Stations